createdAt,value
2022-07-26T00:00:21.399Z,48.54
2022-07-26T00:02:52.188Z,48.58
2022-07-26T00:05:23.071Z,48.06
2022-07-26T00:08:11.173Z,48.05
2022-07-26T00:10:46.479Z,48.13
2022-07-26T00:13:19.748Z,48.50
2022-07-26T00:15:52.443Z,48.58
2022-07-26T00:18:23.543Z,48.42
2022-07-26T00:20:55.569Z,48.12
2022-07-26T00:23:29.131Z,48.07
2022-07-26T00:26:00.234Z,48.17
2022-07-26T00:28:31.165Z,48.53
2022-07-26T00:31:02.693Z,48.34
2022-07-26T00:33:33.916Z,48.53
2022-07-26T00:36:05.207Z,48.16
2022-07-26T00:38:38.996Z,48.14
2022-07-26T00:41:11.281Z,48.12
2022-07-26T00:43:57.541Z,48.15
2022-07-26T00:46:28.826Z,48.49
2022-07-26T00:49:00.553Z,48.42
2022-07-26T00:51:33.571Z,48.06
2022-07-26T00:54:06.578Z,48.43
2022-07-26T00:56:37.698Z,48.22
2022-07-26T00:59:08.752Z,48.21
2022-07-26T01:01:39.721Z,48.07
2022-07-26T01:04:11.041Z,48.25
2022-07-26T01:06:42.561Z,48.11
2022-07-26T01:09:16.094Z,48.07
2022-07-26T01:11:47.764Z,48.54
2022-07-26T01:14:19.149Z,48.37
2022-07-26T01:16:50.361Z,48.61
2022-07-26T01:19:22.669Z,48.15
2022-07-26T01:21:56.057Z,48.21
2022-07-26T01:24:27.093Z,48.49
2022-07-26T01:26:58.140Z,48.62
2022-07-26T01:29:35.426Z,48.04
2022-07-26T01:32:08.040Z,48.53
2022-07-26T01:34:39.212Z,47.96
2022-07-26T01:37:12.247Z,48.57
2022-07-26T01:39:44.922Z,48.80
2022-07-26T01:42:15.853Z,48.33
2022-07-26T01:44:46.808Z,48.49
2022-07-26T01:47:17.244Z,47.96
2022-07-26T01:49:48.260Z,48.35
2022-07-26T01:52:21.913Z,48.51
2022-07-26T01:54:52.827Z,48.12
2022-07-26T01:57:23.794Z,48.24
2022-07-26T01:59:56.149Z,48.41
2022-07-26T02:02:27.408Z,48.61
2022-07-26T02:05:01.401Z,48.28
2022-07-26T02:07:42.508Z,48.32
2022-07-26T02:10:17.755Z,48.44
2022-07-26T02:12:49.929Z,48.50
2022-07-26T02:15:20.843Z,48.50
2022-07-26T02:17:51.373Z,47.94
2022-07-26T02:20:22.583Z,47.86
2022-07-26T02:22:56.372Z,48.24
2022-07-26T02:25:27.516Z,48.24
2022-07-26T02:27:58.653Z,48.40
2022-07-26T02:30:30.422Z,48.28
2022-07-26T02:33:01.441Z,48.08
2022-07-26T02:35:33.268Z,48.21
2022-07-26T02:38:08.446Z,48.44
2022-07-26T02:40:41.092Z,47.96
2022-07-26T02:43:14.648Z,47.96
2022-07-26T02:45:45.704Z,47.72
2022-07-26T02:48:33.999Z,48.39
2022-07-26T02:51:06.683Z,47.79
2022-07-26T02:53:39.741Z,48.23
2022-07-26T02:56:11.098Z,48.20
2022-07-26T02:58:41.695Z,48.17
2022-07-26T03:01:13.081Z,47.74
2022-07-26T03:03:50.160Z,47.87
2022-07-26T03:06:22.657Z,47.83
2022-07-26T03:08:56.185Z,47.62
2022-07-26T03:11:27.023Z,48.16
2022-07-26T03:13:58.104Z,47.98
2022-07-26T03:16:29.800Z,47.85
2022-07-26T03:19:02.853Z,47.83
2022-07-26T03:21:33.702Z,47.91
2022-07-26T03:24:06.878Z,47.35
2022-07-26T03:26:37.830Z,47.53
2022-07-26T03:29:09.178Z,47.42
2022-07-26T03:31:40.070Z,47.35
2022-07-26T03:34:11.023Z,47.60
2022-07-26T03:36:44.661Z,47.23
2022-07-26T03:39:18.926Z,47.08
2022-07-26T03:41:49.954Z,47.48
2022-07-26T03:44:20.594Z,47.74
2022-07-26T03:46:51.836Z,47.62
2022-07-26T03:49:23.224Z,47.02
2022-07-26T03:51:55.921Z,47.42
2022-07-26T03:54:29.508Z,47.30
2022-07-26T03:56:58.616Z,47.47
2022-07-26T03:59:30.501Z,47.37
2022-07-26T04:02:01.739Z,47.18
2022-07-26T04:04:32.950Z,47.36
2022-07-26T04:07:04.467Z,46.87
2022-07-26T04:09:39.074Z,46.83
2022-07-26T04:12:10.538Z,47.22
2022-07-26T04:14:43.212Z,46.92
2022-07-26T04:17:13.859Z,47.43
2022-07-26T04:19:45.021Z,46.80
2022-07-26T04:22:16.508Z,47.14
2022-07-26T04:24:49.156Z,47.00
2022-07-26T04:27:19.976Z,47.09
2022-07-26T04:29:50.532Z,46.94
2022-07-26T04:32:21.396Z,47.19
2022-07-26T04:34:52.655Z,47.09
2022-07-26T04:37:23.834Z,46.81
2022-07-26T04:39:56.594Z,46.79
2022-07-26T04:42:28.164Z,46.57
2022-07-26T04:45:01.137Z,47.17
2022-07-26T04:47:35.017Z,47.04
2022-07-26T04:50:06.450Z,47.13
2022-07-26T04:52:38.236Z,46.69
2022-07-26T04:55:14.157Z,47.06
2022-07-26T04:57:47.345Z,46.68
2022-07-26T05:00:24.926Z,46.49
2022-07-26T05:02:58.788Z,46.54
2022-07-26T05:05:32.295Z,46.44
2022-07-26T05:08:06.384Z,46.62
2022-07-26T05:10:40.036Z,46.45
2022-07-26T05:13:11.410Z,47.10
2022-07-26T05:15:42.776Z,47.07
2022-07-26T05:18:14.354Z,47.36
2022-07-26T05:20:46.256Z,47.21
2022-07-26T05:23:17.409Z,47.32
2022-07-26T05:25:50.364Z,46.95
2022-07-26T05:28:21.494Z,46.94
2022-07-26T05:30:51.885Z,47.54
2022-07-26T05:33:23.164Z,47.45
2022-07-26T05:35:54.089Z,46.90
2022-07-26T05:38:26.331Z,47.07
2022-07-26T05:40:58.793Z,47.47
2022-07-26T05:43:41.465Z,47.60
2022-07-26T05:46:13.813Z,46.87
2022-07-26T05:48:44.938Z,47.33
2022-07-26T05:51:15.516Z,47.06
2022-07-26T05:53:46.053Z,47.39
2022-07-26T05:56:19.191Z,47.07
2022-07-26T05:58:50.363Z,46.35
2022-07-26T06:01:21.949Z,47.09
2022-07-26T06:03:55.495Z,46.77
2022-07-26T06:06:26.255Z,46.35
2022-07-26T06:08:57.751Z,46.83
2022-07-26T06:11:31.247Z,46.08
2022-07-26T06:14:01.921Z,46.98
2022-07-26T06:16:32.659Z,46.75
2022-07-26T06:19:03.864Z,46.96
2022-07-26T06:21:35.197Z,46.78
2022-07-26T06:24:06.456Z,46.32
2022-07-26T06:26:40.896Z,46.98
2022-07-26T06:29:12.214Z,46.88
2022-07-26T06:31:43.013Z,46.33
2022-07-26T06:34:14.258Z,46.56
2022-07-26T06:36:45.240Z,46.62
2022-07-26T06:39:17.224Z,46.89
2022-07-26T06:41:50.305Z,46.88
2022-07-26T06:44:21.288Z,46.68
2022-07-26T06:46:52.588Z,46.41
2022-07-26T06:49:23.253Z,46.85
2022-07-26T06:51:54.323Z,46.76
2022-07-26T06:54:24.891Z,46.86
2022-07-26T06:56:58.270Z,46.99
2022-07-26T06:59:29.279Z,46.93
2022-07-26T07:02:00.723Z,46.71
2022-07-26T07:04:32.985Z,46.51
2022-07-26T07:07:06.507Z,46.36
2022-07-26T07:09:38.283Z,46.48
2022-07-26T07:12:12.915Z,46.40
2022-07-26T07:14:44.302Z,46.88
2022-07-26T07:17:19.869Z,46.66
2022-07-26T07:19:51.511Z,46.90
2022-07-26T07:22:22.202Z,46.86
2022-07-26T07:24:52.648Z,46.74
2022-07-26T07:27:25.440Z,46.23
2022-07-26T07:29:57.969Z,46.59
2022-07-26T07:32:29.672Z,46.28
2022-07-26T07:35:00.880Z,46.11
2022-07-26T07:37:52.409Z,46.68
2022-07-26T07:40:23.702Z,46.14
2022-07-26T07:42:57.195Z,46.08
2022-07-26T07:45:28.129Z,45.97
2022-07-26T07:47:58.743Z,46.54
2022-07-26T07:50:30.367Z,45.95
2022-07-26T07:53:00.894Z,45.89
2022-07-26T07:55:46.090Z,46.01
2022-07-26T07:58:20.406Z,45.96
2022-07-26T08:00:51.225Z,46.43
2022-07-26T08:03:23.139Z,46.07
2022-07-26T08:05:54.105Z,46.09
2022-07-26T08:08:25.289Z,45.77
2022-07-26T08:10:57.393Z,46.37
2022-07-26T08:13:30.220Z,45.68
2022-07-26T08:16:02.173Z,45.96
2022-07-26T08:18:33.170Z,46.11
2022-07-26T08:21:05.983Z,45.93
2022-07-26T08:23:36.950Z,45.60
2022-07-26T08:26:08.325Z,46.01
2022-07-26T08:28:49.295Z,45.61
2022-07-26T08:31:31.324Z,45.68
2022-07-26T08:34:02.733Z,46.10
2022-07-26T08:36:33.592Z,45.42
2022-07-26T08:39:04.830Z,45.66
2022-07-26T08:41:35.679Z,45.39
2022-07-26T08:44:15.002Z,45.45
2022-07-26T08:46:46.830Z,45.83
2022-07-26T08:49:18.746Z,45.58
2022-07-26T08:51:50.845Z,45.55
2022-07-26T08:54:21.708Z,45.69
2022-07-26T08:56:57.216Z,45.59
2022-07-26T08:59:32.044Z,45.23
2022-07-26T09:02:06.384Z,45.17
2022-07-26T09:04:44.275Z,45.23
2022-07-26T09:07:18.944Z,45.01
2022-07-26T09:10:08.020Z,45.56
2022-07-26T09:12:40.956Z,45.23
2022-07-26T09:15:26.819Z,45.22
2022-07-26T09:17:59.867Z,45.20
2022-07-26T09:20:32.499Z,45.21
2022-07-26T09:23:06.717Z,44.67
2022-07-26T09:25:40.412Z,44.91
2022-07-26T09:28:27.940Z,45.22
2022-07-26T09:31:02.598Z,44.67
2022-07-26T09:33:50.554Z,44.64
2022-07-26T09:36:23.046Z,44.60
2022-07-26T09:38:57.647Z,44.59
2022-07-26T09:41:31.405Z,45.17
2022-07-26T09:44:05.770Z,44.81
2022-07-26T09:46:55.007Z,44.87
2022-07-26T09:49:40.035Z,45.15
2022-07-26T09:52:19.768Z,44.96
2022-07-26T09:54:51.836Z,44.48
2022-07-26T09:57:23.405Z,45.08
2022-07-26T09:59:54.562Z,45.05
2022-07-26T10:02:27.598Z,44.81
2022-07-26T10:04:58.908Z,44.96
2022-07-26T10:07:29.959Z,44.87
2022-07-26T10:10:15.802Z,44.56
2022-07-26T10:12:47.311Z,44.67
2022-07-26T10:15:47.006Z,44.49
2022-07-26T10:18:50.989Z,44.71
2022-07-26T10:21:24.583Z,44.48
2022-07-26T10:23:58.117Z,44.40
2022-07-26T10:26:46.263Z,43.78
2022-07-26T10:29:33.011Z,44.01
2022-07-26T10:32:23.291Z,44.06
2022-07-26T10:34:56.020Z,44.24
2022-07-26T10:37:31.022Z,44.12
2022-07-26T10:40:23.121Z,44.20
2022-07-26T10:42:54.749Z,44.15
2022-07-26T10:45:26.714Z,44.09
2022-07-26T10:48:19.217Z,43.75
2022-07-26T10:50:54.160Z,43.27
2022-07-26T10:53:27.765Z,43.29
2022-07-26T10:56:02.369Z,43.50
2022-07-26T10:58:46.254Z,43.95
2022-07-26T11:01:17.967Z,43.48
2022-07-26T11:03:49.853Z,43.30
2022-07-26T11:06:23.857Z,43.61
2022-07-26T11:08:55.017Z,43.64
2022-07-26T11:11:34.454Z,43.88
2022-07-26T11:14:10.687Z,43.95
2022-07-26T11:16:44.295Z,43.63
2022-07-26T11:19:19.488Z,43.51
2022-07-26T11:22:01.290Z,43.64
2022-07-26T11:24:32.177Z,43.54
2022-07-26T11:27:08.470Z,43.61
2022-07-26T11:29:41.678Z,43.18
2022-07-26T11:32:22.417Z,43.27
2022-07-26T11:35:02.665Z,43.59
2022-07-26T11:37:36.091Z,43.03
2022-07-26T11:40:07.481Z,43.12
2022-07-26T11:42:38.497Z,43.57
2022-07-26T11:45:15.312Z,43.09
2022-07-26T11:47:46.536Z,43.55
2022-07-26T11:50:22.693Z,43.60
2022-07-26T11:52:57.148Z,42.89
2022-07-26T11:55:47.065Z,43.51
2022-07-26T11:58:19.052Z,43.32
2022-07-26T12:00:51.077Z,43.45
2022-07-26T12:03:22.698Z,43.17
2022-07-26T12:06:08.140Z,43.04
2022-07-26T12:08:55.750Z,42.91
2022-07-26T12:11:39.052Z,43.10
2022-07-26T12:14:15.055Z,43.48
2022-07-26T12:16:51.601Z,43.39
2022-07-26T12:19:33.653Z,43.26
2022-07-26T12:22:15.218Z,42.98
2022-07-26T12:25:03.622Z,43.23
2022-07-26T12:27:36.421Z,42.74
2022-07-26T12:30:19.307Z,42.62
2022-07-26T12:32:53.117Z,43.22
2022-07-26T12:35:36.170Z,43.30
2022-07-26T12:38:09.560Z,42.46
2022-07-26T12:40:46.189Z,42.54
2022-07-26T12:43:16.995Z,42.54
2022-07-26T12:45:47.872Z,42.87
2022-07-26T12:48:18.766Z,42.61
2022-07-26T12:50:49.748Z,42.92
2022-07-26T12:53:20.909Z,42.97
2022-07-26T12:55:53.889Z,42.81
2022-07-26T12:58:24.807Z,42.52
2022-07-26T13:00:56.158Z,43.19
2022-07-26T13:03:27.448Z,42.61
2022-07-26T13:05:59.088Z,42.97
2022-07-26T13:08:30.010Z,43.06
2022-07-26T13:11:01.731Z,42.80
2022-07-26T13:13:32.543Z,42.52
2022-07-26T13:16:05.545Z,42.51
2022-07-26T13:18:39.924Z,42.50
2022-07-26T13:21:11.576Z,43.10
2022-07-26T13:23:43.437Z,42.84
2022-07-26T13:26:17.123Z,42.47
2022-07-26T13:28:49.933Z,43.04
2022-07-26T13:31:21.200Z,43.03
2022-07-26T13:33:51.561Z,42.84
2022-07-26T13:36:23.106Z,42.51
2022-07-26T13:38:54.794Z,42.74
2022-07-26T13:41:42.816Z,43.05
2022-07-26T13:44:14.930Z,42.63
2022-07-26T13:46:46.465Z,43.23
2022-07-26T13:49:17.501Z,43.17
2022-07-26T13:52:01.617Z,43.11
2022-07-26T13:54:37.270Z,43.28
2022-07-26T13:57:10.336Z,42.71
2022-07-26T13:59:42.527Z,42.93
2022-07-26T14:02:13.636Z,43.06
2022-07-26T14:04:45.309Z,43.51
2022-07-26T14:07:16.664Z,42.95
2022-07-26T14:09:47.885Z,43.10
2022-07-26T14:12:21.671Z,43.01
2022-07-26T14:14:52.713Z,43.17
2022-07-26T14:17:24.217Z,43.61
2022-07-26T14:19:54.895Z,43.85
2022-07-26T14:22:26.019Z,43.48
2022-07-26T14:24:57.230Z,43.11
2022-07-26T14:27:30.521Z,43.70
2022-07-26T14:30:04.289Z,43.20
2022-07-26T14:32:34.592Z,43.12
2022-07-26T14:35:05.997Z,43.56
2022-07-26T14:37:43.684Z,43.95
2022-07-26T14:40:18.781Z,43.62
2022-07-26T14:42:51.572Z,43.94
2022-07-26T14:45:23.973Z,44.06
2022-07-26T14:47:55.399Z,43.42
2022-07-26T14:50:26.591Z,43.55
2022-07-26T14:52:58.165Z,43.61
2022-07-26T14:55:29.965Z,43.88
2022-07-26T14:58:04.001Z,43.75
2022-07-26T15:00:37.747Z,43.54
2022-07-26T15:03:12.205Z,43.90
2022-07-26T15:05:43.449Z,43.83
2022-07-26T15:08:13.732Z,43.61
2022-07-26T15:10:45.004Z,44.15
2022-07-26T15:13:18.578Z,44.39
2022-07-26T15:15:48.957Z,43.96
2022-07-26T15:18:20.781Z,44.41
2022-07-26T15:20:52.035Z,44.45
2022-07-26T15:23:23.193Z,44.69
2022-07-26T15:25:54.497Z,43.88
2022-07-26T15:28:27.530Z,44.15
2022-07-26T15:30:58.575Z,44.32
2022-07-26T15:33:29.818Z,43.98
2022-07-26T15:36:05.681Z,44.03
2022-07-26T15:38:38.161Z,44.12
2022-07-26T15:41:09.931Z,43.99
2022-07-26T15:43:49.127Z,44.02
2022-07-26T15:46:20.462Z,44.08
2022-07-26T15:48:54.878Z,44.64
2022-07-26T15:51:26.541Z,44.66
2022-07-26T15:53:58.136Z,44.69
2022-07-26T15:56:29.681Z,44.26
2022-07-26T15:59:03.373Z,44.06
2022-07-26T16:01:35.481Z,44.00
2022-07-26T16:04:08.523Z,44.18
2022-07-26T16:06:39.937Z,44.55
2022-07-26T16:09:17.284Z,44.47
2022-07-26T16:11:48.673Z,44.54
2022-07-26T16:14:21.974Z,43.94
2022-07-26T16:16:53.158Z,44.53
2022-07-26T16:19:24.609Z,44.30
2022-07-26T16:21:56.042Z,44.55
2022-07-26T16:24:28.976Z,43.92
2022-07-26T16:27:04.678Z,44.19
2022-07-26T16:29:43.482Z,44.65
2022-07-26T16:32:16.523Z,44.33
2022-07-26T16:34:47.602Z,44.49
2022-07-26T16:37:18.775Z,44.29
2022-07-26T16:39:50.191Z,43.91
2022-07-26T16:42:22.521Z,44.55
2022-07-26T16:44:55.087Z,44.03
2022-07-26T16:47:26.207Z,44.18
2022-07-26T16:49:58.013Z,43.81
2022-07-26T16:52:29.658Z,44.12
2022-07-26T16:55:01.994Z,44.08
2022-07-26T16:57:33.135Z,44.00
2022-07-26T17:00:07.684Z,43.87
2022-07-26T17:02:38.978Z,44.03
2022-07-26T17:05:11.922Z,43.90
2022-07-26T17:07:42.954Z,44.22
2022-07-26T17:10:14.853Z,44.30
2022-07-26T17:12:46.721Z,43.53
2022-07-26T17:15:22.023Z,44.23
2022-07-26T17:17:52.806Z,44.34
2022-07-26T17:20:52.955Z,43.86
2022-07-26T17:23:23.840Z,44.31
2022-07-26T17:25:54.553Z,44.47
2022-07-26T17:28:28.781Z,44.01
2022-07-26T17:31:05.762Z,44.17
2022-07-26T17:33:40.401Z,44.33
2022-07-26T17:36:26.499Z,44.69
2022-07-26T17:38:57.778Z,44.17
2022-07-26T17:41:33.730Z,44.38
2022-07-26T17:44:05.204Z,44.39
2022-07-26T17:46:39.138Z,44.59
2022-07-26T17:49:10.257Z,44.36
2022-07-26T17:51:42.524Z,44.16
2022-07-26T17:54:13.493Z,44.13
2022-07-26T17:56:44.887Z,44.83
2022-07-26T17:59:15.945Z,44.21
2022-07-26T18:01:50.597Z,44.29
2022-07-26T18:04:24.823Z,44.65
2022-07-26T18:06:56.215Z,44.15
2022-07-26T18:09:27.768Z,44.25
2022-07-26T18:11:59.724Z,44.61
2022-07-26T18:14:31.543Z,44.17
2022-07-26T18:17:04.386Z,44.11
2022-07-26T18:19:35.162Z,44.65
2022-07-26T18:22:06.619Z,44.70
2022-07-26T18:24:38.052Z,44.96
2022-07-26T18:27:09.442Z,44.80
2022-07-26T18:29:40.911Z,44.17
2022-07-26T18:32:15.917Z,44.27
2022-07-26T18:34:52.347Z,44.31
2022-07-26T18:37:25.216Z,44.66
2022-07-26T18:39:58.224Z,44.72
2022-07-26T18:42:29.870Z,45.01
2022-07-26T18:45:01.304Z,44.92
2022-07-26T18:47:34.561Z,44.91
2022-07-26T18:50:05.494Z,44.89
2022-07-26T18:52:37.241Z,44.35
2022-07-26T18:55:12.855Z,44.91
2022-07-26T18:57:46.116Z,44.42
2022-07-26T19:00:20.741Z,44.89
2022-07-26T19:02:55.053Z,44.79
2022-07-26T19:05:26.218Z,44.68
2022-07-26T19:08:05.938Z,44.72
2022-07-26T19:10:37.751Z,44.52
2022-07-26T19:13:10.293Z,44.73
2022-07-26T19:15:41.679Z,44.61
2022-07-26T19:18:16.950Z,44.56
2022-07-26T19:20:48.552Z,45.03
2022-07-26T19:23:19.821Z,44.47
2022-07-26T19:25:51.082Z,44.51
2022-07-26T19:28:22.156Z,44.67
2022-07-26T19:30:53.532Z,44.78
2022-07-26T19:33:26.692Z,44.59
2022-07-26T19:35:58.413Z,44.58
2022-07-26T19:38:32.177Z,44.67
2022-07-26T19:41:04.979Z,45.23
2022-07-26T19:43:35.919Z,44.69
2022-07-26T19:46:07.217Z,45.00
2022-07-26T19:48:40.309Z,44.57
2022-07-26T19:51:11.207Z,44.51
2022-07-26T19:53:41.996Z,44.68
2022-07-26T19:56:13.829Z,44.68
2022-07-26T19:58:46.663Z,45.25
2022-07-26T20:01:18.470Z,44.59
2022-07-26T20:03:50.666Z,45.26
2022-07-26T20:06:21.369Z,44.88
2022-07-26T20:08:52.942Z,44.61
2022-07-26T20:11:25.532Z,45.18
2022-07-26T20:13:57.058Z,45.22
2022-07-26T20:16:28.642Z,45.33
2022-07-26T20:19:01.354Z,44.75
2022-07-26T20:21:32.557Z,45.23
2022-07-26T20:24:03.763Z,44.56
2022-07-26T20:26:35.067Z,45.21
2022-07-26T20:29:07.433Z,45.31
2022-07-26T20:31:39.569Z,44.74
2022-07-26T20:34:12.374Z,45.12
2022-07-26T20:36:43.470Z,45.22
2022-07-26T20:39:14.571Z,45.16
2022-07-26T20:41:46.306Z,45.02
2022-07-26T20:44:19.891Z,45.11
2022-07-26T20:46:53.404Z,45.14
2022-07-26T20:49:26.602Z,45.18
2022-07-26T20:51:57.348Z,45.15
2022-07-26T20:54:31.364Z,44.93
2022-07-26T20:57:04.176Z,45.37
2022-07-26T20:59:35.702Z,45.36
2022-07-26T21:02:06.636Z,45.61
2022-07-26T21:04:40.157Z,45.58
2022-07-26T21:07:11.676Z,44.93
2022-07-26T21:09:44.776Z,45.01
2022-07-26T21:12:15.979Z,45.14
2022-07-26T21:14:47.983Z,45.19
2022-07-26T21:17:19.619Z,45.07
2022-07-26T21:19:53.318Z,45.74
2022-07-26T21:22:23.470Z,45.13
2022-07-26T21:24:54.605Z,45.65
2022-07-26T21:27:25.709Z,45.70
2022-07-26T21:29:57.950Z,45.42
2022-07-26T21:32:31.742Z,45.65
2022-07-26T21:35:05.836Z,45.63
2022-07-26T21:37:37.285Z,45.19
2022-07-26T21:40:10.481Z,45.68
2022-07-26T21:42:41.686Z,45.68
2022-07-26T21:45:13.351Z,45.61
2022-07-26T21:47:44.115Z,45.29
2022-07-26T21:50:17.398Z,45.05
2022-07-26T21:52:48.161Z,45.19
2022-07-26T21:55:19.607Z,45.15
2022-07-26T21:57:52.228Z,45.16
2022-07-26T22:00:23.729Z,45.14
2022-07-26T22:02:54.064Z,45.06
2022-07-26T22:05:43.410Z,45.59
2022-07-26T22:08:16.163Z,45.29
2022-07-26T22:10:48.781Z,45.64
2022-07-26T22:13:20.376Z,45.69
2022-07-26T22:15:51.650Z,45.62
2022-07-26T22:18:22.414Z,45.30
2022-07-26T22:20:56.334Z,45.46
2022-07-26T22:23:30.736Z,45.57
2022-07-26T22:26:03.378Z,45.39
2022-07-26T22:28:35.111Z,45.06
2022-07-26T22:31:07.373Z,45.30
2022-07-26T22:33:38.385Z,45.77
2022-07-26T22:36:13.524Z,45.51
2022-07-26T22:38:45.047Z,45.32
2022-07-26T22:41:16.653Z,45.71
2022-07-26T22:43:46.995Z,45.97
2022-07-26T22:46:17.965Z,45.95
2022-07-26T22:48:59.168Z,45.32
2022-07-26T22:51:32.336Z,45.98
2022-07-26T22:54:03.162Z,45.35
2022-07-26T22:56:34.522Z,46.10
2022-07-26T22:59:06.057Z,45.94
2022-07-26T23:01:37.718Z,45.90
2022-07-26T23:04:08.661Z,45.90
2022-07-26T23:06:41.632Z,45.71
2022-07-26T23:09:14.109Z,46.11
2022-07-26T23:11:46.333Z,46.14
2022-07-26T23:14:18.708Z,46.12
2022-07-26T23:16:49.904Z,45.55
2022-07-26T23:19:21.755Z,45.79
2022-07-26T23:21:54.226Z,45.92
2022-07-26T23:24:25.507Z,45.38
2022-07-26T23:26:56.759Z,45.55
2022-07-26T23:29:27.608Z,45.95
2022-07-26T23:31:59.337Z,46.04
2022-07-26T23:34:30.491Z,45.56
2022-07-26T23:37:04.271Z,45.55
2022-07-26T23:39:35.086Z,46.06
2022-07-26T23:42:07.838Z,45.55
2022-07-26T23:44:40.235Z,45.55
2022-07-26T23:47:11.003Z,45.79
2022-07-26T23:49:44.475Z,45.84
2022-07-26T23:52:17.732Z,45.44
2022-07-26T23:54:48.344Z,46.17
2022-07-26T23:57:18.726Z,46.02
2022-07-26T23:59:50.349Z,46.19
